Time;durP1;ratioP1;P1;durP2;ratioP2;P2;SDS_P1;SDS_P2;PMS_P1;PMS_P2;Temp;Humidity;BMP_temperature;BMP_pressure;BME280_temperature;BME280_humidity;BME280_pressure;Samples;Min_cycle;Max_cycle;Signal;HPM_P1;HPM_P2
2023/12/22 00:02:19;;;;;;;14.95;3.65;;;7.70;70.60;;;;;;5091792;27;20184;-86
2023/12/22 00:04:45;;;;;;;23.25;3.92;;;7.20;69.80;;;;;;5099316;27;20035;-86
2023/12/22 00:07:11;;;;;;;18.35;3.70;;;7.20;68.30;;;;;;5122781;27;20038;-86
2023/12/22 00:09:37;;;;;;;15.88;3.33;;;7.20;67.10;;;;;;5094782;28;20112;-86
2023/12/22 00:12:03;;;;;;;12.98;2.83;;;7.70;66.80;;;;;;5102562;27;20031;-86
2023/12/22 00:14:29;;;;;;;14.13;3.17;;;7.20;65.30;;;;;;5100746;27;20027;-86
2023/12/22 00:16:54;;;;;;;17.77;3.55;;;7.20;65.60;;;;;;5098145;27;20062;-86
2023/12/22 00:19:20;;;;;;;17.95;3.53;;;7.20;65.00;;;;;;5095139;27;20056;-86
2023/12/22 00:21:45;;;;;;;18.75;3.45;;;7.20;65.20;;;;;;5117933;27;20054;-86
2023/12/22 00:24:11;;;;;;;20.95;4.15;;;7.20;65.00;;;;;;5107146;28;20435;-86
2023/12/22 00:26:37;;;;;;;16.48;3.78;;;7.10;65.60;;;;;;5092399;28;20085;-86
2023/12/22 00:29:02;;;;;;;23.02;3.65;;;7.20;65.80;;;;;;5089254;27;20035;-86
2023/12/22 00:31:28;;;;;;;18.38;3.85;;;7.20;65.80;;;;;;5089640;27;20100;-86
2023/12/22 00:33:54;;;;;;;17.33;3.65;;;7.10;66.20;;;;;;5113117;27;20077;-86
2023/12/22 00:36:24;;;;;;;19.73;4.15;;;7.10;66.90;;;;;;5093278;27;20473;-86
2023/12/22 00:38:50;;;;;;;14.38;3.70;;;7.20;66.90;;;;;;5088353;27;20077;-86
2023/12/22 00:41:15;;;;;;;19.25;3.70;;;7.20;67.40;;;;;;5103843;28;20039;-86
2023/12/22 00:43:41;;;;;;;21.65;3.92;;;7.10;67.50;;;;;;5114523;27;20031;-86
2023/12/22 00:46:06;;;;;;;18.65;4.07;;;7.20;67.70;;;;;;5101787;27;20039;-87
2023/12/22 00:48:32;;;;;;;23.20;3.78;;;7.20;67.40;;;;;;5090245;27;20063;-87
2023/12/22 00:50:58;;;;;;;17.80;3.45;;;7.10;67.40;;;;;;5087494;27;20470;-87
2023/12/22 00:53:23;;;;;;;16.38;3.67;;;7.10;66.90;;;;;;5115457;27;20027;-87
2023/12/22 00:55:49;;;;;;;14.27;3.38;;;7.10;66.80;;;;;;5111067;28;20034;-87
2023/12/22 00:58:14;;;;;;;16.83;3.55;;;7.60;66.40;;;;;;5094327;27;20424;-87
2023/12/22 01:00:40;;;;;;;10.93;2.42;;;7.10;65.30;;;;;;5088051;27;20091;-87
2023/12/22 01:03:05;;;;;;;19.15;4.40;;;7.10;65.40;;;;;;5089493;27;20123;-87
2023/12/22 01:05:31;;;;;;;17.95;4.05;;;7.10;65.40;;;;;;5089478;27;20023;-87
2023/12/22 01:07:56;;;;;;;20.45;4.10;;;7.10;65.50;;;;;;5109992;27;20030;-87
2023/12/22 01:10:22;;;;;;;18.42;4.07;;;7.10;65.80;;;;;;5089751;28;20063;-87
2023/12/22 01:12:48;;;;;;;22.42;3.38;;;7.10;65.70;;;;;;5093421;27;20451;-87
2023/12/22 01:15:13;;;;;;;17.55;3.80;;;7.10;65.60;;;;;;5091445;27;20028;-86
2023/12/22 01:17:39;;;;;;;14.60;3.05;;;7.20;64.90;;;;;;5109587;27;20044;-87
2023/12/22 01:20:05;;;;;;;17.40;3.42;;;7.10;64.50;;;;;;5088939;27;20039;-86
2023/12/22 01:22:32;;;;;;;17.88;3.97;;;7.10;64.70;;;;;;5096867;27;20038;-87
2023/12/22 01:24:57;;;;;;;18.13;3.92;;;7.10;64.50;;;;;;5095893;28;20031;-86
2023/12/22 01:27:23;;;;;;;16.80;4.15;;;7.30;65.20;;;;;;5121104;28;20050;-86
2023/12/22 01:29:48;;;;;;;17.60;4.28;;;7.20;65.80;;;;;;5101081;27;20121;-87
2023/12/22 01:32:14;;;;;;;16.75;3.22;;;7.20;66.30;;;;;;5107954;27;20022;-87
2023/12/22 01:34:40;;;;;;;14.00;3.50;;;7.20;66.70;;;;;;5092564;28;20117;-86
2023/12/22 01:37:06;;;;;;;14.52;2.95;;;7.50;67.10;;;;;;5085123;28;20055;-86
2023/12/22 01:39:31;;;;;;;14.88;3.05;;;7.80;67.70;;;;;;5086534;28;20040;-86
2023/12/22 01:41:57;;;;;;;11.60;2.63;;;7.20;67.60;;;;;;5085061;28;20046;-86
2023/12/22 01:44:22;;;;;;;14.25;2.92;;;7.20;68.10;;;;;;5100184;28;20089;-86
2023/12/22 01:46:49;;;;;;;11.00;2.13;;;7.20;68.60;;;;;;5085827;28;20134;-86
2023/12/22 01:49:15;;;;;;;11.90;2.67;;;7.20;69.00;;;;;;5103316;28;20096;-86
2023/12/22 01:51:42;;;;;;;15.93;2.60;;;7.20;69.50;;;;;;5103403;28;20035;-86
2023/12/22 01:54:08;;;;;;;10.80;2.55;;;7.20;69.80;;;;;;5084938;28;20036;-86
2023/12/22 01:56:34;;;;;;;11.27;2.85;;;7.20;70.20;;;;;;5086360;28;20406;-86
2023/12/22 01:59:01;;;;;;;15.23;3.53;;;7.20;70.60;;;;;;5084600;28;20040;-86
2023/12/22 02:01:32;;;;;;;15.32;2.90;;;7.30;70.90;;;;;;5085839;28;20144;-86
2023/12/22 02:03:59;;;;;;;12.35;2.58;;;7.30;71.20;;;;;;5085509;28;20046;-86
2023/12/22 02:06:25;;;;;;;19.67;3.55;;;7.40;71.40;;;;;;5082855;28;20032;-86
2023/12/22 02:08:51;;;;;;;11.25;2.67;;;7.30;71.50;;;;;;5086087;28;20031;-87
2023/12/22 02:11:16;;;;;;;18.75;3.67;;;7.10;71.70;;;;;;5103174;28;20089;-86
2023/12/22 02:13:45;;;;;;;18.45;2.95;;;7.30;72.10;;;;;;5107461;28;20086;-86
2023/12/22 02:16:30;;;;;;;14.77;3.08;;;7.30;72.40;;;;;;5085050;28;20034;-86
2023/12/22 02:18:58;;;;;;;21.63;3.35;;;7.30;73.00;;;;;;5085858;28;20109;-86
2023/12/22 02:21:24;;;;;;;17.88;3.90;;;7.30;73.90;;;;;;5084021;28;20445;-86
2023/12/22 02:23:49;;;;;;;21.13;3.70;;;7.90;75.50;;;;;;5088095;28;20036;-87
2023/12/22 02:26:33;;;;;;;13.57;2.92;;;7.30;76.30;;;;;;5091005;28;20099;-86
2023/12/22 02:29:01;;;;;;;16.25;2.60;;;7.30;77.80;;;;;;5092525;28;20093;-86
2023/12/22 02:31:44;;;;;;;13.60;2.60;;;7.10;77.90;;;;;;5083221;28;20157;-85
2023/12/22 02:34:14;;;;;;;9.48;1.88;;;7.10;78.40;;;;;;5090235;28;20041;-86
2023/12/22 02:36:40;;;;;;;8.55;2.10;;;7.00;78.40;;;;;;5084887;28;20043;-86
2023/12/22 02:39:07;;;;;;;10.75;2.65;;;7.00;78.60;;;;;;5109443;27;20071;-86
2023/12/22 02:41:33;;;;;;;6.97;1.80;;;6.90;78.40;;;;;;5089949;27;22625;-86
2023/12/22 02:43:59;;;;;;;10.88;1.83;;;6.80;78.40;;;;;;5121364;27;20076;-85
2023/12/22 02:46:25;;;;;;;11.40;1.73;;;6.80;78.50;;;;;;5093060;27;20513;-85
2023/12/22 02:48:50;;;;;;;12.35;2.58;;;6.80;78.60;;;;;;5095628;28;20040;-86
2023/12/22 02:51:16;;;;;;;13.30;1.77;;;6.70;78.80;;;;;;5109270;27;20447;-87
2023/12/22 02:53:41;;;;;;;13.32;2.10;;;6.70;79.00;;;;;;5094542;27;20046;-86
2023/12/22 02:56:07;;;;;;;16.90;2.47;;;6.70;79.80;;;;;;5095864;27;20031;-86
2023/12/22 02:58:34;;;;;;;9.77;1.73;;;6.70;80.40;;;;;;5090633;28;20031;-86
2023/12/22 03:00:59;;;;;;;7.30;1.13;;;6.60;80.40;;;;;;5111479;27;20092;-86
2023/12/22 03:03:25;;;;;;;5.93;1.00;;;6.60;80.50;;;;;;5108944;27;20035;-86
2023/12/22 03:05:50;;;;;;;4.15;0.90;;;6.60;80.40;;;;;;5093549;27;20047;-86
2023/12/22 03:08:16;;;;;;;5.35;1.45;;;6.50;80.50;;;;;;5093540;28;20517;-86
2023/12/22 03:10:41;;;;;;;3.05;0.55;;;6.50;79.70;;;;;;5092943;27;20039;-86
2023/12/22 03:13:07;;;;;;;4.90;0.95;;;6.40;79.40;;;;;;5094735;27;20035;-86
2023/12/22 03:15:33;;;;;;;3.03;0.40;;;6.40;79.00;;;;;;5104306;27;20501;-86
2023/12/22 03:17:58;;;;;;;7.40;0.82;;;6.40;78.70;;;;;;5096024;27;20035;-86
2023/12/22 03:20:24;;;;;;;5.60;0.90;;;6.40;78.40;;;;;;5091925;27;20042;-86
2023/12/22 03:22:49;;;;;;;6.88;1.15;;;6.40;78.10;;;;;;5113600;27;20058;-86
2023/12/22 03:25:15;;;;;;;5.32;0.90;;;6.30;78.20;;;;;;5091295;27;20043;-86
2023/12/22 03:27:41;;;;;;;4.20;0.93;;;6.30;77.70;;;;;;5108791;27;20042;-86
2023/12/22 03:30:07;;;;;;;4.95;1.38;;;6.90;77.80;;;;;;5095873;27;20043;-86
2023/12/22 03:32:32;;;;;;;10.05;1.40;;;6.20;77.30;;;;;;5107467;27;20076;-86
2023/12/22 03:34:58;;;;;;;9.65;1.63;;;7.00;77.80;;;;;;5111585;27;20039;-86
2023/12/22 03:37:23;;;;;;;10.38;1.50;;;6.20;77.50;;;;;;5096477;27;20069;-86
2023/12/22 03:39:49;;;;;;;12.43;2.08;;;6.20;77.70;;;;;;5090580;28;20036;-86
2023/12/22 03:42:16;;;;;;;13.57;2.03;;;6.20;78.00;;;;;;5114164;27;20063;-86
2023/12/22 03:44:41;;;;;;;10.90;1.80;;;6.20;78.20;;;;;;5097901;27;20050;-86
2023/12/22 03:47:07;;;;;;;8.40;2.65;;;6.20;78.20;;;;;;5116028;27;20085;-86
2023/12/22 03:49:33;;;;;;;14.45;2.60;;;6.10;78.30;;;;;;5100913;27;20023;-86
2023/12/22 03:51:58;;;;;;;16.70;3.33;;;6.10;78.40;;;;;;5107167;27;20102;-86
2023/12/22 03:54:24;;;;;;;16.70;2.67;;;6.10;78.40;;;;;;5114803;27;20038;-86
2023/12/22 03:56:49;;;;;;;11.60;2.70;;;6.10;78.50;;;;;;5116749;27;20039;-86
2023/12/22 03:59:18;;;;;;;21.73;3.58;;;6.10;78.80;;;;;;5095901;27;20027;-87
2023/12/22 04:01:44;;;;;;;15.73;3.20;;;6.10;78.90;;;;;;5106845;27;20047;-87
2023/12/22 04:04:09;;;;;;;14.45;3.30;;;6.10;79.00;;;;;;5106191;27;20041;-87
2023/12/22 04:06:39;;;;;;;14.05;3.08;;;6.10;79.10;;;;;;5089221;27;20053;-87
2023/12/22 04:09:05;;;;;;;17.35;3.65;;;6.10;79.40;;;;;;5089978;27;20454;-87
2023/12/22 04:11:30;;;;;;;17.33;3.10;;;6.10;79.50;;;;;;5108796;27;20090;-87
2023/12/22 04:13:56;;;;;;;20.38;3.45;;;6.10;79.60;;;;;;5090649;27;20393;-87
2023/12/22 04:16:21;;;;;;;18.42;3.75;;;6.10;79.80;;;;;;5090830;27;20038;-87
2023/12/22 04:18:47;;;;;;;15.70;2.90;;;6.20;80.00;;;;;;5088704;27;20038;-87
2023/12/22 04:21:12;;;;;;;14.88;2.38;;;6.20;80.10;;;;;;5110525;27;20035;-87
2023/12/22 04:23:38;;;;;;;18.08;3.17;;;6.80;80.40;;;;;;5094616;27;20043;-86
2023/12/22 04:26:04;;;;;;;18.10;2.92;;;6.20;80.10;;;;;;5109163;28;20042;-86
2023/12/22 04:28:29;;;;;;;18.17;3.30;;;6.20;80.10;;;;;;5107804;28;20114;-86
2023/12/22 04:30:55;;;;;;;14.82;2.95;;;7.10;80.60;;;;;;5093287;27;20069;-86
2023/12/22 04:33:20;;;;;;;14.65;2.88;;;6.30;79.60;;;;;;5089769;27;20027;-87
2023/12/22 04:35:46;;;;;;;15.98;2.95;;;6.30;79.70;;;;;;5090924;27;20489;-86
2023/12/22 04:38:12;;;;;;;15.30;3.00;;;6.30;79.50;;;;;;5092204;27;20039;-86
2023/12/22 04:40:37;;;;;;;14.15;2.65;;;6.30;79.30;;;;;;5094895;27;20118;-86
2023/12/22 04:43:03;;;;;;;12.48;2.70;;;6.40;79.10;;;;;;5094410;27;20035;-86
2023/12/22 04:45:28;;;;;;;12.85;2.67;;;6.40;78.90;;;;;;5083184;28;20081;-86
2023/12/22 04:47:54;;;;;;;15.30;2.60;;;6.40;78.40;;;;;;5092287;27;20039;-86
2023/12/22 04:50:20;;;;;;;16.58;2.88;;;6.40;78.60;;;;;;5088070;28;20031;-86
2023/12/22 04:52:45;;;;;;;16.27;2.50;;;6.40;78.60;;;;;;5094040;27;20039;-86
2023/12/22 04:55:11;;;;;;;16.50;2.80;;;6.50;78.40;;;;;;5110394;27;20454;-87
2023/12/22 04:57:36;;;;;;;17.67;3.65;;;6.50;78.40;;;;;;5091306;27;20031;-87
2023/12/22 05:00:02;;;;;;;17.88;2.97;;;6.50;78.30;;;;;;5092707;28;20039;-87
2023/12/22 05:02:29;;;;;;;15.45;3.08;;;6.50;78.40;;;;;;5087338;27;20038;-87
2023/12/22 05:04:54;;;;;;;18.20;3.63;;;6.50;78.40;;;;;;5087099;27;20088;-86
2023/12/22 05:07:20;;;;;;;16.85;3.25;;;6.60;78.50;;;;;;5108200;27;20136;-86
2023/12/22 05:09:46;;;;;;;17.92;3.20;;;6.60;78.60;;;;;;5110168;27;20076;-86
2023/12/22 05:12:11;;;;;;;17.33;3.13;;;6.60;78.60;;;;;;5107103;28;20115;-86
2023/12/22 05:14:37;;;;;;;15.43;3.05;;;6.90;78.90;;;;;;5107483;27;20129;-86
2023/12/22 05:17:03;;;;;;;14.27;3.50;;;6.60;78.70;;;;;;5103511;27;20059;-86
2023/12/22 05:19:28;;;;;;;14.40;3.20;;;6.70;78.90;;;;;;5110038;28;20042;-86
2023/12/22 05:21:56;;;;;;;20.88;3.63;;;6.70;79.00;;;;;;5086774;27;20035;-86
2023/12/22 05:24:22;;;;;;;16.58;2.63;;;6.70;79.10;;;;;;5083882;28;20031;-87
2023/12/22 05:26:48;;;;;;;16.33;3.78;;;6.70;79.10;;;;;;5106472;27;20628;-87
2023/12/22 05:29:13;;;;;;;15.60;2.50;;;6.70;79.00;;;;;;5089734;28;20043;-87
2023/12/22 05:31:39;;;;;;;13.38;3.17;;;6.80;79.20;;;;;;5103355;27;20042;-86
2023/12/22 05:34:05;;;;;;;22.00;4.03;;;6.80;79.20;;;;;;5116546;27;20111;-87
2023/12/22 05:36:31;;;;;;;21.15;4.07;;;6.80;79.30;;;;;;5091040;27;20078;-86
2023/12/22 05:38:57;;;;;;;19.83;3.35;;;6.80;79.20;;;;;;5092183;27;20051;-86
2023/12/22 05:41:22;;;;;;;20.33;4.13;;;6.90;79.20;;;;;;5100714;27;20175;-87
2023/12/22 05:43:48;;;;;;;18.80;4.68;;;6.90;79.00;;;;;;5089411;28;20074;-87
2023/12/22 05:46:13;;;;;;;22.00;3.65;;;6.90;78.80;;;;;;5103214;28;20042;-87
2023/12/22 05:48:39;;;;;;;16.98;3.05;;;7.50;78.60;;;;;;5096480;27;20039;-86
2023/12/22 05:51:07;;;;;;;14.30;3.63;;;6.90;78.00;;;;;;5092742;28;20035;-87
2023/12/22 05:53:33;;;;;;;19.83;3.75;;;6.90;77.80;;;;;;5093472;28;20031;-88
2023/12/22 05:55:59;;;;;;;20.58;3.30;;;7.00;77.70;;;;;;5106049;28;20096;-87
2023/12/22 05:58:24;;;;;;;22.75;4.25;;;7.70;78.30;;;;;;5114193;28;20058;-87
2023/12/22 06:00:50;;;;;;;18.35;3.80;;;7.00;77.60;;;;;;5117619;28;20118;-87
2023/12/22 06:03:15;;;;;;;14.27;2.85;;;7.00;78.10;;;;;;5104035;28;20031;-87
2023/12/22 06:05:41;;;;;;;16.55;2.65;;;7.00;77.50;;;;;;5103397;28;20061;-86
2023/12/22 06:08:06;;;;;;;14.15;2.72;;;7.00;77.20;;;;;;5106114;28;20054;-85
2023/12/22 06:10:32;;;;;;;14.95;2.55;;;7.00;76.80;;;;;;5101811;28;20042;-86
2023/12/22 06:12:58;;;;;;;12.38;2.35;;;7.00;76.80;;;;;;5101124;27;20042;-85
2023/12/22 06:15:24;;;;;;;10.20;2.45;;;7.10;76.90;;;;;;5116732;27;20072;-85
2023/12/22 06:17:49;;;;;;;15.27;3.78;;;7.10;76.40;;;;;;5095879;27;20047;-86
2023/12/22 06:20:15;;;;;;;15.70;4.22;;;7.10;76.60;;;;;;5101804;27;20054;-86
2023/12/22 06:22:41;;;;;;;16.98;3.55;;;7.10;76.60;;;;;;5110467;27;20035;-86
2023/12/22 06:25:07;;;;;;;17.88;3.95;;;7.10;76.60;;;;;;5093370;27;20091;-87
2023/12/22 06:27:33;;;;;;;18.67;3.90;;;7.10;76.60;;;;;;5108439;27;20367;-86
2023/12/22 06:29:59;;;;;;;17.15;4.35;;;7.10;76.70;;;;;;5109197;27;20036;-87
2023/12/22 06:32:25;;;;;;;22.30;4.00;;;7.10;76.90;;;;;;5092724;28;20027;-86
2023/12/22 06:34:50;;;;;;;21.88;3.53;;;7.10;77.00;;;;;;5110070;27;20043;-86
2023/12/22 06:37:16;;;;;;;14.35;2.75;;;7.50;77.40;;;;;;5093268;27;20048;-86
2023/12/22 06:39:42;;;;;;;13.38;3.63;;;7.20;77.30;;;;;;5093334;27;20449;-87
2023/12/22 06:42:10;;;;;;;19.85;3.58;;;7.20;77.50;;;;;;5089664;27;20073;-87
2023/12/22 06:44:37;;;;;;;20.30;4.03;;;7.20;77.80;;;;;;5091970;27;20468;-87
2023/12/22 06:47:03;;;;;;;18.08;3.75;;;7.20;78.10;;;;;;5093711;27;20042;-87
2023/12/22 06:49:28;;;;;;;20.58;3.03;;;7.20;78.50;;;;;;5092759;27;20114;-87
2023/12/22 06:51:54;;;;;;;20.45;3.47;;;7.20;78.80;;;;;;5106651;28;20031;-87
2023/12/22 06:54:20;;;;;;;18.52;4.68;;;7.20;79.20;;;;;;5096070;27;20031;-87
2023/12/22 06:56:45;;;;;;;22.73;4.28;;;7.20;79.20;;;;;;5095848;27;20126;-87
2023/12/22 06:59:11;;;;;;;19.58;3.88;;;7.30;79.30;;;;;;5092871;27;20499;-87
2023/12/22 07:01:37;;;;;;;14.80;3.65;;;7.20;79.30;;;;;;5112846;27;20031;-87
2023/12/22 07:04:06;;;;;;;17.70;3.10;;;7.30;79.60;;;;;;5110185;27;20038;-87
2023/12/22 07:06:33;;;;;;;10.88;2.58;;;7.20;79.70;;;;;;5112107;27;20043;-87
2023/12/22 07:09:14;;;;;;;24.67;3.83;;;7.30;79.90;;;;;;5109005;27;20038;-87
2023/12/22 07:11:41;;;;;;;20.50;3.85;;;7.30;80.50;;;;;;5089246;27;20055;-88
2023/12/22 07:14:06;;;;;;;19.30;3.60;;;7.30;80.30;;;;;;5092791;27;20457;-88
2023/12/22 07:16:33;;;;;;;16.77;3.45;;;7.30;80.30;;;;;;5096550;27;20059;-88
2023/12/22 07:18:58;;;;;;;14.43;3.60;;;7.20;80.40;;;;;;5092652;27;20039;-88
2023/12/22 07:21:24;;;;;;;16.08;3.17;;;7.50;80.80;;;;;;5092325;27;20110;-87
2023/12/22 07:23:50;;;;;;;14.10;3.30;;;7.20;80.70;;;;;;5088556;27;20057;-87
2023/12/22 07:26:15;;;;;;;13.65;3.05;;;7.20;80.90;;;;;;5097838;27;20036;-87
2023/12/22 07:28:41;;;;;;;17.90;2.92;;;7.30;80.90;;;;;;5109989;27;20036;-87
2023/12/22 07:31:06;;;;;;;16.30;2.70;;;7.20;81.00;;;;;;5091057;27;20096;-88
2023/12/22 07:33:32;;;;;;;19.25;2.65;;;7.30;81.20;;;;;;5109403;27;20063;-88
2023/12/22 07:35:58;;;;;;;11.55;2.40;;;7.20;81.20;;;;;;5090878;27;20039;-87
2023/12/22 07:38:23;;;;;;;16.42;3.05;;;7.30;81.50;;;;;;5092997;27;20043;-88
2023/12/22 07:40:49;;;;;;;12.52;2.53;;;7.20;81.60;;;;;;5095855;27;20072;-88
2023/12/22 07:43:15;;;;;;;15.98;2.95;;;7.20;81.80;;;;;;5095310;27;20035;-87
2023/12/22 07:45:41;;;;;;;13.70;3.00;;;7.20;82.10;;;;;;5099823;27;20039;-86
2023/12/22 07:48:07;;;;;;;16.27;3.00;;;7.20;82.40;;;;;;5122629;27;20054;-86
2023/12/22 07:50:33;;;;;;;13.63;2.78;;;7.20;82.60;;;;;;5106654;27;20037;-86
2023/12/22 07:52:58;;;;;;;19.38;4.57;;;7.80;83.10;;;;;;5087829;27;20038;-86
2023/12/22 07:55:24;;;;;;;11.05;2.92;;;7.20;83.40;;;;;;5086416;27;20479;-86
2023/12/22 07:57:50;;;;;;;11.43;2.38;;;7.20;83.00;;;;;;5093714;27;20110;-85
2023/12/22 08:00:17;;;;;;;17.67;2.85;;;7.30;83.40;;;;;;5094844;27;20035;-86
2023/12/22 08:02:43;;;;;;;19.20;2.95;;;7.30;83.70;;;;;;5098554;27;20038;-86
2023/12/22 08:05:09;;;;;;;11.93;2.20;;;7.60;83.90;;;;;;5092212;27;20042;-86
2023/12/22 08:07:35;;;;;;;16.77;3.03;;;7.30;84.40;;;;;;5089420;27;20046;-85
2023/12/22 08:10:02;;;;;;;13.45;2.97;;;7.20;84.50;;;;;;5095632;27;20113;-85
2023/12/22 08:12:28;;;;;;;14.10;2.63;;;7.30;84.90;;;;;;5096052;27;20027;-86
2023/12/22 08:14:54;;;;;;;11.77;2.38;;;7.30;85.20;;;;;;5106542;27;20038;-86
2023/12/22 08:17:19;;;;;;;11.55;2.58;;;7.30;85.20;;;;;;5088152;27;20041;-86
2023/12/22 08:19:45;;;;;;;8.80;2.03;;;7.30;85.20;;;;;;5100610;27;20039;-86
2023/12/22 08:22:13;;;;;;;15.23;2.55;;;7.30;85.30;;;;;;5098544;27;20459;-85
2023/12/22 08:24:39;;;;;;;18.27;3.05;;;7.30;85.20;;;;;;5107431;27;20145;-86
2023/12/22 08:27:06;;;;;;;16.42;2.80;;;7.30;85.20;;;;;;5103178;27;20039;-86
2023/12/22 08:29:32;;;;;;;14.07;2.45;;;7.30;85.10;;;;;;5096357;27;20529;-86
2023/12/22 08:31:58;;;;;;;8.95;1.70;;;7.50;85.20;;;;;;5083223;28;20031;-87
2023/12/22 08:34:23;;;;;;;9.50;1.95;;;7.30;85.10;;;;;;5094517;27;20039;-86
2023/12/22 08:36:49;;;;;;;9.32;2.28;;;7.30;85.00;;;;;;5095899;28;20039;-87
2023/12/22 08:39:15;;;;;;;11.13;2.58;;;7.30;85.00;;;;;;5113779;27;20050;-87
2023/12/22 08:41:41;;;;;;;11.52;2.15;;;7.30;84.90;;;;;;5104553;27;20038;-86
2023/12/22 08:44:07;;;;;;;11.10;2.50;;;7.30;84.90;;;;;;5108079;27;20038;-86
2023/12/22 08:46:34;;;;;;;8.65;1.65;;;7.30;85.00;;;;;;5089142;27;20146;-86
2023/12/22 08:49:00;;;;;;;8.25;1.70;;;7.30;84.90;;;;;;5107078;27;20175;-87
2023/12/22 08:51:26;;;;;;;9.18;1.58;;;7.30;84.80;;;;;;5107948;28;20415;-87
2023/12/22 08:53:54;;;;;;;9.20;1.85;;;7.30;84.80;;;;;;5107789;27;20110;-87
2023/12/22 08:56:21;;;;;;;10.88;2.22;;;7.30;84.60;;;;;;5087387;28;20027;-88
2023/12/22 08:58:47;;;;;;;7.22;1.42;;;7.40;84.50;;;;;;5090049;27;20060;-87
2023/12/22 09:01:16;;;;;;;6.47;1.65;;;7.30;84.40;;;;;;5106086;27;20042;-87
2023/12/22 09:03:45;;;;;;;8.45;2.70;;;7.40;84.50;;;;;;5109869;27;20103;-87
2023/12/22 09:06:15;;;;;;;7.88;1.45;;;7.30;84.20;;;;;;5089146;27;20166;-87
2023/12/22 09:08:42;;;;;;;5.13;1.45;;;7.30;84.20;;;;;;5111035;27;20389;-87
2023/12/22 09:11:08;;;;;;;8.82;1.42;;;7.30;83.20;;;;;;5087864;28;20107;-87
2023/12/22 09:13:35;;;;;;;7.15;1.30;;;7.30;83.20;;;;;;5092191;27;20118;-87
2023/12/22 09:16:02;;;;;;;9.70;1.67;;;7.30;83.30;;;;;;5105258;27;20050;-87
2023/12/22 09:18:28;;;;;;;13.15;1.90;;;7.30;83.40;;;;;;5106286;27;20023;-87
2023/12/22 09:20:54;;;;;;;11.60;1.58;;;7.20;83.50;;;;;;5101453;28;20042;-87
2023/12/22 09:23:21;;;;;;;7.30;1.48;;;7.20;83.60;;;;;;5095598;27;20031;-87
2023/12/22 09:25:47;;;;;;;13.00;2.00;;;7.20;83.70;;;;;;5106715;27;20047;-87
2023/12/22 09:28:12;;;;;;;9.68;1.70;;;7.20;83.80;;;;;;5090517;28;20044;-87
2023/12/22 09:30:38;;;;;;;6.95;1.20;;;7.10;83.90;;;;;;5086305;27;20054;-87
2023/12/22 09:33:04;;;;;;;7.70;1.23;;;7.00;84.00;;;;;;5090875;27;20043;-87
2023/12/22 09:35:29;;;;;;;9.75;1.48;;;7.00;84.20;;;;;;5091656;27;20028;-87
2023/12/22 09:37:55;;;;;;;7.20;1.20;;;7.00;84.20;;;;;;5091315;27;20059;-87
2023/12/22 09:40:22;;;;;;;8.52;1.30;;;6.90;84.30;;;;;;5093973;27;20154;-87
2023/12/22 09:42:48;;;;;;;8.88;1.60;;;6.90;84.50;;;;;;5100823;27;20035;-87
2023/12/22 09:45:19;;;;;;;6.00;1.15;;;6.90;84.70;;;;;;5080654;28;20031;-87
2023/12/22 09:47:46;;;;;;;8.82;1.45;;;6.80;84.80;;;;;;5082509;28;20032;-87
2023/12/22 09:50:13;;;;;;;10.15;1.88;;;6.80;85.00;;;;;;5091947;27;20815;-87
2023/12/22 09:52:41;;;;;;;10.35;1.70;;;6.70;85.10;;;;;;5095961;28;20034;-88
2023/12/22 09:55:08;;;;;;;9.73;2.72;;;6.70;85.30;;;;;;5087580;28;20048;-87
2023/12/22 09:57:34;;;;;;;7.82;1.50;;;6.70;85.40;;;;;;5108443;28;20047;-87
2023/12/22 10:00:06;;;;;;;6.63;1.42;;;6.60;85.70;;;;;;5094681;28;20114;-87
2023/12/22 10:02:33;;;;;;;10.25;2.22;;;6.60;85.90;;;;;;5103731;28;20044;-87
2023/12/22 10:05:01;;;;;;;10.68;2.30;;;6.90;86.40;;;;;;5115088;28;20068;-87
2023/12/22 10:07:28;;;;;;;6.38;1.52;;;6.50;86.60;;;;;;5088554;28;20413;-87
2023/12/22 10:09:56;;;;;;;10.52;1.92;;;6.50;86.90;;;;;;5106972;28;20106;-87
2023/12/22 10:12:23;;;;;;;9.15;1.40;;;6.50;87.60;;;;;;5092750;28;20068;-87
2023/12/22 10:14:49;;;;;;;8.82;1.67;;;6.40;87.40;;;;;;5088146;28;20402;-87
2023/12/22 10:17:15;;;;;;;7.38;1.90;;;7.00;88.10;;;;;;5087814;28;20035;-87
2023/12/22 10:19:41;;;;;;;4.82;0.80;;;6.40;87.90;;;;;;5085797;28;20036;-88
2023/12/22 10:22:07;;;;;;;8.07;1.00;;;6.40;88.40;;;;;;5106416;28;20044;-87
2023/12/22 10:24:43;;;;;;;5.97;0.95;;;6.40;88.30;;;;;;5086710;28;20047;-87
2023/12/22 10:27:10;;;;;;;4.63;0.60;;;6.40;88.60;;;;;;5090445;28;20386;-87
2023/12/22 10:29:35;;;;;;;6.90;2.13;;;6.40;88.90;;;;;;5091004;28;20023;-87
2023/12/22 10:32:02;;;;;;;4.22;0.70;;;6.40;88.90;;;;;;5091314;28;20366;-87
2023/12/22 10:34:28;;;;;;;3.42;0.93;;;6.40;88.90;;;;;;5085819;28;20031;-87
2023/12/22 10:36:54;;;;;;;4.45;1.17;;;7.00;89.20;;;;;;5088465;28;20088;-87
2023/12/22 10:39:21;;;;;;;5.50;0.50;;;6.40;88.90;;;;;;5091617;28;20458;-88
2023/12/22 10:41:47;;;;;;;3.30;0.50;;;6.40;89.00;;;;;;5084607;28;20502;-88
2023/12/22 10:44:13;;;;;;;3.67;0.60;;;6.40;89.00;;;;;;5093156;28;20027;-87
2023/12/22 10:46:40;;;;;;;2.33;0.65;;;6.30;88.90;;;;;;5114114;28;20131;-87
2023/12/22 10:49:07;;;;;;;4.63;0.50;;;6.40;89.10;;;;;;5119950;28;20039;-87
2023/12/22 10:51:32;;;;;;;2.63;0.50;;;6.30;89.10;;;;;;5096811;28;20095;-87
2023/12/22 10:53:58;;;;;;;3.40;0.88;;;6.40;89.20;;;;;;5088752;28;20114;-88
2023/12/22 10:56:25;;;;;;;4.63;0.65;;;6.30;89.10;;;;;;5086744;28;20028;-88
2023/12/22 10:58:52;;;;;;;3.83;0.80;;;6.40;89.40;;;;;;5112824;27;20035;-87
2023/12/22 11:01:20;;;;;;;3.63;0.82;;;6.30;89.50;;;;;;5093050;27;20034;-87
2023/12/22 11:03:50;;;;;;;4.85;0.70;;;6.30;89.70;;;;;;5098443;27;20039;-87
2023/12/22 11:06:16;;;;;;;4.38;0.85;;;6.40;90.00;;;;;;5089027;27;20027;-88
2023/12/22 11:08:43;;;;;;;9.90;0.93;;;6.40;90.10;;;;;;5093264;27;20552;-87
2023/12/22 11:11:20;;;;;;;3.30;1.15;;;6.40;90.20;;;;;;5094904;27;20142;-87
2023/12/22 11:13:47;;;;;;;4.38;0.80;;;6.40;90.30;;;;;;5074040;27;20043;-87
2023/12/22 11:16:14;;;;;;;4.32;0.82;;;6.50;90.40;;;;;;5091571;27;20036;-87
2023/12/22 11:18:40;;;;;;;5.13;1.00;;;6.50;90.50;;;;;;5093868;27;20103;-88
2023/12/22 11:21:06;;;;;;;5.85;1.02;;;6.60;90.70;;;;;;5094218;27;20482;-87
2023/12/22 11:23:33;;;;;;;4.18;0.80;;;6.60;90.70;;;;;;5089070;28;20438;-87
2023/12/22 11:26:00;;;;;;;4.40;0.93;;;6.70;90.70;;;;;;5097085;27;20035;-87
2023/12/22 11:28:26;;;;;;;8.50;1.58;;;6.70;90.60;;;;;;5095749;27;20059;-88
2023/12/22 11:30:53;;;;;;;5.50;0.90;;;7.30;90.80;;;;;;5100202;27;20088;-88
2023/12/22 11:33:21;;;;;;;6.55;1.17;;;6.80;90.70;;;;;;5099566;27;20114;-88
2023/12/22 11:35:47;;;;;;;7.35;1.00;;;6.90;90.70;;;;;;5092640;27;20038;-89
2023/12/22 11:38:13;;;;;;;6.78;0.90;;;6.90;90.70;;;;;;5090983;27;20059;-86
2023/12/22 11:40:40;;;;;;;4.30;0.90;;;6.90;90.70;;;;;;5108989;27;20039;-85
2023/12/22 11:43:06;;;;;;;4.70;0.82;;;7.00;90.70;;;;;;5111373;28;20040;-85
2023/12/22 11:45:34;;;;;;;4.45;0.98;;;7.10;90.70;;;;;;5095933;27;20390;-86
2023/12/22 11:48:09;;;;;;;4.85;1.17;;;7.40;90.80;;;;;;5086509;27;20050;-86
2023/12/22 11:50:35;;;;;;;6.85;1.20;;;7.10;90.70;;;;;;5091072;27;20039;-86
2023/12/22 11:53:24;;;;;;;6.78;0.90;;;7.20;90.60;;;;;;5089868;27;20065;-85
2023/12/22 11:56:00;;;;;;;7.80;0.95;;;7.20;90.60;;;;;;5088183;27;20043;-85
2023/12/22 11:58:38;;;;;;;4.25;0.60;;;7.20;90.60;;;;;;5088589;27;20049;-85
2023/12/22 12:01:14;;;;;;;5.75;0.80;;;7.30;90.60;;;;;;5107945;27;20047;-85
2023/12/22 12:03:56;;;;;;;5.00;0.95;;;7.30;90.50;;;;;;5091376;27;20435;-85
2023/12/22 12:06:22;;;;;;;7.30;1.30;;;7.30;90.30;;;;;;5091639;27;20035;-85
2023/12/22 12:08:51;;;;;;;4.53;0.60;;;7.30;90.20;;;;;;5091992;28;20043;-85
2023/12/22 12:11:18;;;;;;;6.10;1.17;;;7.30;90.10;;;;;;5092048;27;20039;-85
2023/12/22 12:13:45;;;;;;;10.63;0.90;;;7.30;90.00;;;;;;5102050;27;20426;-85
2023/12/22 12:16:15;;;;;;;5.25;1.02;;;7.30;89.70;;;;;;5108916;27;20050;-86
2023/12/22 12:18:42;;;;;;;6.63;0.98;;;7.20;90.10;;;;;;5109896;28;20432;-86
2023/12/22 12:21:09;;;;;;;3.90;0.70;;;7.20;90.00;;;;;;5092743;27;20375;-86
2023/12/22 12:23:35;;;;;;;6.30;1.00;;;7.20;90.10;;;;;;5109133;27;20050;-86
2023/12/22 12:26:01;;;;;;;5.40;1.52;;;7.20;90.10;;;;;;5093281;27;20027;-86
2023/12/22 12:28:29;;;;;;;4.38;0.85;;;7.20;90.20;;;;;;5102677;27;20031;-85
2023/12/22 12:31:04;;;;;;;7.28;0.90;;;7.30;90.20;;;;;;5099478;27;20489;-85
2023/12/22 12:33:30;;;;;;;5.80;1.40;;;7.30;90.30;;;;;;5086999;27;20039;-85
2023/12/22 12:36:00;;;;;;;5.38;1.10;;;7.30;90.30;;;;;;5109671;27;20057;-85
2023/12/22 12:38:58;;;;;;;9.60;1.05;;;7.30;90.30;;;;;;5079184;28;20044;-86
2023/12/22 12:41:31;;;;;;;8.10;0.80;;;7.40;90.30;;;;;;5101034;28;20040;-87
2023/12/22 12:43:58;;;;;;;8.27;1.15;;;7.40;90.30;;;;;;5091485;28;20036;-87
2023/12/22 12:46:32;;;;;;;7.78;1.15;;;7.40;90.30;;;;;;5072705;28;20060;-87
2023/12/22 12:49:11;;;;;;;4.17;1.00;;;7.50;90.30;;;;;;5087675;28;20124;-87